createdAt,value
2017-11-18T00:00:52.363Z,101295.19
2017-11-18T00:01:58.600Z,101299.94
2017-11-18T00:03:04.708Z,101298.22
2017-11-18T00:04:10.784Z,101301.22
2017-11-18T00:05:16.698Z,101298.19
2017-11-18T00:06:22.853Z,101300.75
2017-11-18T00:07:28.933Z,101292.55
2017-11-18T00:08:34.992Z,101288.25
2017-11-18T00:09:41.062Z,101291.28
2017-11-18T00:10:47.170Z,101290.42
2017-11-18T00:11:58.216Z,101289.12
2017-11-18T00:13:04.326Z,101287.02
2017-11-18T00:14:10.435Z,101291.74
2017-11-18T00:15:16.589Z,101293.90
2017-11-18T00:16:23.461Z,101295.63
2017-11-18T00:17:29.555Z,101296.05
2017-11-18T00:18:35.666Z,101293.03
2017-11-18T00:19:41.754Z,101296.94
2017-11-18T00:20:47.906Z,101299.94
2017-11-18T00:21:53.998Z,101299.53
2017-11-18T00:23:02.227Z,101298.23
2017-11-18T00:24:08.313Z,101303.39
2017-11-18T00:25:14.380Z,101302.97
2017-11-18T00:26:20.483Z,101300.36
2017-11-18T00:27:26.583Z,101293.44
2017-11-18T00:28:32.688Z,101295.61
2017-11-18T00:29:38.800Z,101299.91
2017-11-18T00:30:45.549Z,101300.33
2017-11-18T00:31:52.161Z,101296.92
2017-11-18T00:32:58.274Z,101295.16
2017-11-18T00:34:04.439Z,101305.08
2017-11-18T00:35:10.561Z,101306.82
2017-11-18T00:36:16.693Z,101305.53
2017-11-18T00:37:22.800Z,101296.44
2017-11-18T00:38:28.568Z,101300.80
2017-11-18T00:39:34.623Z,101294.73
2017-11-18T00:40:40.709Z,101296.03
2017-11-18T00:41:47.128Z,101294.77
2017-11-18T00:42:53.194Z,101292.16
2017-11-18T00:43:59.255Z,101290.87
2017-11-18T00:45:05.365Z,101295.19
2017-11-18T00:46:12.334Z,101292.17
2017-11-18T00:47:18.480Z,101290.02
2017-11-18T00:48:24.638Z,101292.20
2017-11-18T00:49:30.818Z,101290.45
2017-11-18T00:50:37.020Z,101285.69
2017-11-18T00:51:43.071Z,101290.87
2017-11-18T00:52:49.167Z,101291.76
2017-11-18T00:53:55.369Z,101284.81
2017-11-18T00:55:00.801Z,101287.00
2017-11-18T00:56:06.975Z,101289.60
2017-11-18T00:57:13.066Z,101285.72
2017-11-18T00:58:19.179Z,101286.12
2017-11-18T00:59:25.567Z,101284.41
2017-11-18T01:00:31.679Z,101286.12
2017-11-18T01:01:37.585Z,101288.72
2017-11-18T01:02:43.689Z,101286.98
2017-11-18T01:03:49.770Z,101280.49
2017-11-18T01:04:55.866Z,101284.74
2017-11-18T01:06:01.952Z,101281.75
2017-11-18T01:07:09.933Z,101280.87
2017-11-18T01:08:16.820Z,101283.88
2017-11-18T01:09:22.925Z,101288.20
2017-11-18T01:10:29.027Z,101282.14
2017-11-18T01:11:35.189Z,101280.86
2017-11-18T01:12:41.037Z,101282.58
2017-11-18T01:13:53.248Z,101285.18
2017-11-18T01:14:59.332Z,101286.03
2017-11-18T01:16:05.847Z,101284.29
2017-11-18T01:17:11.925Z,101290.75
2017-11-18T01:18:17.992Z,101284.27
2017-11-18T01:19:24.095Z,101284.70
2017-11-18T01:20:30.179Z,101281.63
2017-11-18T01:21:41.174Z,101287.28
2017-11-18T01:22:47.297Z,101283.39
2017-11-18T01:23:53.381Z,101279.91
2017-11-18T01:24:59.262Z,101291.62
2017-11-18T01:26:05.379Z,101281.63
2017-11-18T01:27:11.505Z,101280.75
2017-11-18T01:28:17.649Z,101286.78
2017-11-18T01:29:26.618Z,101280.34
2017-11-18T01:30:32.709Z,101279.91
2017-11-18T01:31:45.031Z,101282.52
2017-11-18T01:32:51.228Z,101276.91
2017-11-18T01:33:57.314Z,101280.73
2017-11-18T01:35:03.083Z,101273.38
2017-11-18T01:36:09.184Z,101275.53
2017-11-18T01:37:15.308Z,101270.80
2017-11-18T01:38:21.405Z,101271.66
2017-11-18T01:39:27.505Z,101270.78
2017-11-18T01:40:34.215Z,101266.90
2017-11-18T01:41:40.339Z,101267.76
2017-11-18T01:42:46.436Z,101269.05
2017-11-18T01:43:52.519Z,101266.45
2017-11-18T01:44:58.279Z,101266.41
2017-11-18T01:46:04.410Z,101265.12
2017-11-18T01:47:10.538Z,101263.81
2017-11-18T01:48:16.675Z,101261.19
2017-11-18T01:49:22.797Z,101255.60
2017-11-18T01:50:28.578Z,101256.02
2017-11-18T01:51:34.833Z,101252.14
2017-11-18T01:52:40.996Z,101255.16
2017-11-18T01:53:46.726Z,101250.42
2017-11-18T01:54:52.801Z,101253.38
2017-11-18T01:55:58.877Z,101245.22
2017-11-18T01:57:05.311Z,101242.61
2017-11-18T01:58:17.558Z,101244.36
2017-11-18T01:59:23.612Z,101235.73
2017-11-18T02:00:29.476Z,101231.48
2017-11-18T02:01:34.302Z,101231.92
2017-11-18T02:02:44.988Z,101233.62
2017-11-18T02:03:51.049Z,101234.93
2017-11-18T02:04:56.928Z,101233.66
2017-11-18T02:06:02.368Z,101225.47
2017-11-18T02:07:08.470Z,101224.59
2017-11-18T02:08:14.547Z,101221.14
2017-11-18T02:09:20.636Z,101219.43
2017-11-18T02:10:26.817Z,101222.03
2017-11-18T02:11:32.927Z,101219.42
2017-11-18T02:12:38.710Z,101224.12
2017-11-18T02:13:44.838Z,101218.51
2017-11-18T02:14:50.916Z,101210.33
2017-11-18T02:15:57.036Z,101218.10
2017-11-18T02:17:03.086Z,101212.48
2017-11-18T02:18:09.544Z,101211.58
2017-11-18T02:19:15.293Z,101209.42
2017-11-18T02:20:20.509Z,101212.03
2017-11-18T02:21:25.912Z,101208.56
2017-11-18T02:22:31.274Z,101209.47
2017-11-18T02:23:37.087Z,101204.27
2017-11-18T02:24:42.489Z,101202.11
2017-11-18T02:25:47.672Z,101199.47
2017-11-18T02:26:53.208Z,101197.33
2017-11-18T02:27:58.641Z,101193.84
2017-11-18T02:29:04.039Z,101193.00
2017-11-18T02:30:09.200Z,101190.80
2017-11-18T02:31:14.645Z,101189.11
2017-11-18T02:32:20.042Z,101186.11
2017-11-18T02:33:25.478Z,101186.97
2017-11-18T02:34:30.866Z,101185.24
2017-11-18T02:35:36.252Z,101186.13
2017-11-18T02:36:41.803Z,101187.85
2017-11-18T02:37:47.364Z,101188.69
2017-11-18T02:38:52.845Z,101178.30
2017-11-18T02:40:01.198Z,101180.00
2017-11-18T02:41:06.415Z,101177.83
2017-11-18T02:42:11.885Z,101183.92
2017-11-18T02:43:17.095Z,101178.73
2017-11-18T02:44:24.347Z,101183.50
2017-11-18T02:45:29.751Z,101174.02
2017-11-18T02:46:35.178Z,101185.66
2017-11-18T02:47:40.752Z,101184.80
2017-11-18T02:48:45.961Z,101175.77
2017-11-18T02:49:51.660Z,101176.22
2017-11-18T02:50:57.031Z,101177.91
2017-11-18T02:52:02.411Z,101172.31
2017-11-18T02:53:07.615Z,101168.89
2017-11-18T02:54:14.092Z,101168.91
2017-11-18T02:55:19.839Z,101171.92
2017-11-18T02:56:25.636Z,101175.83
2017-11-18T02:57:31.497Z,101175.34
2017-11-18T02:58:36.712Z,101169.31
2017-11-18T02:59:42.099Z,101171.51
2017-11-18T03:00:48.207Z,101169.33
2017-11-18T03:01:54.285Z,101166.30
2017-11-18T03:03:00.436Z,101169.36
2017-11-18T03:04:06.595Z,101173.63
2017-11-18T03:05:12.656Z,101164.58
2017-11-18T03:06:18.565Z,101162.87
2017-11-18T03:07:24.484Z,101167.19
2017-11-18T03:08:30.248Z,101163.73
2017-11-18T03:09:36.374Z,101168.50
2017-11-18T03:10:42.497Z,101165.46
2017-11-18T03:11:51.394Z,101161.12
2017-11-18T03:12:57.200Z,101155.94
2017-11-18T03:14:03.676Z,101159.36
2017-11-18T03:15:09.442Z,101149.00
2017-11-18T03:16:15.570Z,101153.31
2017-11-18T03:17:21.699Z,101145.56
2017-11-18T03:18:28.738Z,101149.90
2017-11-18T03:19:34.819Z,101142.97
2017-11-18T03:20:41.022Z,101137.77
2017-11-18T03:21:46.741Z,101148.55
2017-11-18T03:22:52.830Z,101142.92
2017-11-18T03:23:58.565Z,101142.97
2017-11-18T03:25:04.031Z,101143.41
2017-11-18T03:26:10.161Z,101143.38
2017-11-18T03:27:15.571Z,101141.23
2017-11-18T03:28:21.680Z,101138.62
2017-11-18T03:29:27.778Z,101133.45
2017-11-18T03:30:33.916Z,101137.35
2017-11-18T03:31:39.685Z,101140.35
2017-11-18T03:32:45.793Z,101139.06
2017-11-18T03:33:52.074Z,101143.83
2017-11-18T03:34:58.177Z,101134.77
2017-11-18T03:36:08.629Z,101133.03
2017-11-18T03:37:14.556Z,101141.67
2017-11-18T03:38:20.473Z,101136.52
2017-11-18T03:39:26.924Z,101136.92
2017-11-18T03:40:33.109Z,101136.07
2017-11-18T03:41:39.317Z,101136.52
2017-11-18T03:42:45.404Z,101138.66
2017-11-18T03:43:55.080Z,101131.77
2017-11-18T03:45:01.152Z,101130.50
2017-11-18T03:46:06.932Z,101127.89
2017-11-18T03:47:12.362Z,101125.75
2017-11-18T03:48:18.443Z,101133.52
2017-11-18T03:49:24.587Z,101126.16
2017-11-18T03:50:29.995Z,101124.89
2017-11-18T03:51:36.144Z,101128.34
2017-11-18T03:52:42.578Z,101123.59
2017-11-18T03:53:48.727Z,101119.30
2017-11-18T03:54:54.825Z,101115.84
2017-11-18T03:56:00.967Z,101108.08
2017-11-18T03:57:07.045Z,101109.84
2017-11-18T03:58:13.618Z,101107.25
2017-11-18T03:59:23.643Z,101105.50
2017-11-18T04:00:29.031Z,101108.11
2017-11-18T04:01:34.267Z,101104.22
2017-11-18T04:02:40.384Z,101110.26
2017-11-18T04:03:46.527Z,101106.81
2017-11-18T04:04:52.609Z,101103.78
2017-11-18T04:05:59.040Z,101098.19
2017-11-18T04:07:05.160Z,101098.59
2017-11-18T04:08:11.058Z,101102.48
2017-11-18T04:09:17.120Z,101097.32
2017-11-18T04:10:24.143Z,101095.59
2017-11-18T04:11:29.951Z,101099.02
2017-11-18T04:12:36.037Z,101100.33
2017-11-18T04:13:42.136Z,101092.12
2017-11-18T04:14:47.769Z,101096.00
2017-11-18T04:15:53.952Z,101091.68
2017-11-18T04:17:00.208Z,101097.30
2017-11-18T04:18:05.930Z,101091.25
2017-11-18T04:19:12.040Z,101091.25
2017-11-18T04:20:17.769Z,101087.36
2017-11-18T04:21:23.523Z,101089.09
2017-11-18T04:22:30.612Z,101093.81
2017-11-18T04:23:36.734Z,101089.95
2017-11-18T04:24:42.846Z,101086.07
2017-11-18T04:25:49.111Z,101092.97
2017-11-18T04:26:55.204Z,101089.52
2017-11-18T04:28:01.353Z,101087.77
2017-11-18T04:29:07.455Z,101086.03
2017-11-18T04:30:13.519Z,101093.38
2017-11-18T04:31:21.571Z,101085.16
2017-11-18T04:32:27.366Z,101082.58
2017-11-18T04:33:33.164Z,101081.27
2017-11-18T04:34:39.860Z,101083.48
2017-11-18T04:35:46.405Z,101080.45
2017-11-18T04:36:52.610Z,101083.05
2017-11-18T04:37:58.683Z,101084.33
2017-11-18T04:39:04.080Z,101080.87
2017-11-18T04:40:10.180Z,101086.92
2017-11-18T04:41:16.247Z,101088.23
2017-11-18T04:42:22.046Z,101082.16
2017-11-18T04:43:28.412Z,101081.73
2017-11-18T04:44:34.572Z,101079.12
2017-11-18T04:45:40.684Z,101079.15
2017-11-18T04:46:47.140Z,101065.73
2017-11-18T04:47:53.244Z,101068.73
2017-11-18T04:48:58.955Z,101072.23
2017-11-18T04:50:11.061Z,101061.84
2017-11-18T04:51:18.757Z,101065.75
2017-11-18T04:52:24.937Z,101066.57
2017-11-18T04:53:30.717Z,101059.66
2017-11-18T04:54:36.975Z,101071.33
2017-11-18T04:55:43.035Z,101067.47
2017-11-18T04:56:49.496Z,101063.99
2017-11-18T04:57:55.577Z,101064.01
2017-11-18T04:59:01.317Z,101064.89
2017-11-18T05:00:07.399Z,101069.22
2017-11-18T05:01:13.022Z,101070.08
2017-11-18T05:02:18.979Z,101067.90
2017-11-18T05:03:25.138Z,101066.17
2017-11-18T05:04:31.333Z,101064.45
2017-11-18T05:05:37.130Z,101072.23
2017-11-18T05:06:43.238Z,101066.20
2017-11-18T05:07:52.230Z,101069.20
2017-11-18T05:08:58.339Z,101063.14
2017-11-18T05:10:04.090Z,101064.42
2017-11-18T05:11:09.297Z,101068.32
2017-11-18T05:12:15.469Z,101059.27
2017-11-18T05:13:21.554Z,101059.70
2017-11-18T05:14:27.470Z,101059.69
2017-11-18T05:15:33.578Z,101057.95
2017-11-18T05:16:39.808Z,101050.17
2017-11-18T05:17:45.943Z,101060.13
2017-11-18T05:18:53.992Z,101057.95
2017-11-18T05:19:59.707Z,101061.00
2017-11-18T05:21:05.414Z,101055.80
2017-11-18T05:22:11.203Z,101060.98
2017-11-18T05:23:16.961Z,101056.63
2017-11-18T05:24:22.759Z,101059.66
2017-11-18T05:25:28.890Z,101054.48
2017-11-18T05:26:34.312Z,101057.94
2017-11-18T05:27:40.181Z,101052.75
2017-11-18T05:28:46.282Z,101049.30
2017-11-18T05:29:52.369Z,101051.45
2017-11-18T05:30:58.478Z,101054.95
2017-11-18T05:32:03.924Z,101061.00
2017-11-18T05:33:10.235Z,101054.92
2017-11-18T05:34:16.515Z,101053.66
2017-11-18T05:35:22.271Z,101047.16
2017-11-18T05:36:27.661Z,101049.30
2017-11-18T05:37:33.227Z,101044.98
2017-11-18T05:38:38.672Z,101045.42
2017-11-18T05:39:44.999Z,101045.00
2017-11-18T05:40:50.760Z,101035.05
2017-11-18T05:41:56.837Z,101029.86
2017-11-18T05:43:02.959Z,101030.70
2017-11-18T05:44:09.056Z,101030.28
2017-11-18T05:45:15.165Z,101035.89
2017-11-18T05:46:21.255Z,101019.87
2017-11-18T05:47:27.372Z,101016.42
2017-11-18T05:48:33.496Z,101016.83
2017-11-18T05:49:39.610Z,101018.55
2017-11-18T05:50:45.717Z,101015.09
2017-11-18T05:51:51.788Z,101012.93
2017-11-18T05:52:57.935Z,101008.61
2017-11-18T05:54:04.038Z,101014.63
2017-11-18T05:55:10.133Z,101016.86
2017-11-18T05:56:16.232Z,101008.64
2017-11-18T05:57:22.376Z,101008.13
2017-11-18T05:58:28.225Z,101007.70
2017-11-18T05:59:34.354Z,101001.25
2017-11-18T06:00:39.773Z,101001.66
2017-11-18T06:01:51.026Z,101007.66
2017-11-18T06:02:56.236Z,101008.52
2017-11-18T06:04:02.406Z,101007.27
2017-11-18T06:05:07.768Z,101007.69
2017-11-18T06:06:14.389Z,101005.10
2017-11-18T06:07:20.532Z,101003.81
2017-11-18T06:08:26.640Z,101001.59
2017-11-18T06:09:32.804Z,100998.56
2017-11-18T06:10:38.897Z,101001.18
2017-11-18T06:11:45.004Z,100997.27
2017-11-18T06:12:51.148Z,100994.25
2017-11-18T06:13:57.263Z,101001.18
2017-11-18T06:15:08.084Z,101008.92
2017-11-18T06:16:14.164Z,101014.97
2017-11-18T06:17:19.944Z,101007.19
2017-11-18T06:18:26.007Z,101010.69
2017-11-18T06:19:32.110Z,101008.95
2017-11-18T06:20:38.341Z,101002.01
2017-11-18T06:21:44.422Z,100995.45
2017-11-18T06:22:50.816Z,101001.52
2017-11-18T06:23:56.908Z,101008.44
2017-11-18T06:25:03.057Z,101001.51
2017-11-18T06:26:09.195Z,101001.06
2017-11-18T06:27:15.309Z,100998.52
2017-11-18T06:28:21.776Z,100998.05
2017-11-18T06:29:27.913Z,100995.03
2017-11-18T06:30:33.997Z,100991.98
2017-11-18T06:31:40.123Z,100996.33
2017-11-18T06:32:46.250Z,100998.08
2017-11-18T06:33:52.367Z,100994.59
2017-11-18T06:34:58.611Z,100996.76
2017-11-18T06:36:11.301Z,100989.36
2017-11-18T06:37:17.426Z,100980.73
2017-11-18T06:38:23.568Z,100981.60
2017-11-18T06:39:29.678Z,100979.84
2017-11-18T06:40:36.160Z,100976.82
2017-11-18T06:41:42.258Z,100972.52
2017-11-18T06:42:48.364Z,100971.20
2017-11-18T06:43:54.491Z,100973.38
2017-11-18T06:45:00.573Z,100970.77
2017-11-18T06:46:06.746Z,100973.79
2017-11-18T06:47:13.020Z,100974.17
2017-11-18T06:48:19.099Z,100975.86
2017-11-18T06:49:25.210Z,100969.83
2017-11-18T06:50:34.281Z,100975.91
2017-11-18T06:51:40.408Z,100974.66
2017-11-18T06:52:46.573Z,100967.71
2017-11-18T06:53:52.752Z,100972.93
2017-11-18T06:54:58.867Z,100970.77
2017-11-18T06:56:05.028Z,100969.88
2017-11-18T06:57:11.404Z,100976.39
2017-11-18T06:58:17.515Z,100974.19
2017-11-18T06:59:23.647Z,100973.70
2017-11-18T07:00:29.813Z,100977.62
2017-11-18T07:01:35.954Z,100977.14
2017-11-18T07:02:42.068Z,100975.46
2017-11-18T07:03:48.151Z,100975.89
2017-11-18T07:04:54.506Z,100975.86
2017-11-18T07:06:00.623Z,100973.63
2017-11-18T07:07:06.707Z,100974.92
2017-11-18T07:08:13.113Z,100979.30
2017-11-18T07:09:19.297Z,100970.62
2017-11-18T07:10:25.495Z,100978.88
2017-11-18T07:11:31.698Z,100961.97
2017-11-18T07:12:37.820Z,100966.73
2017-11-18T07:13:44.008Z,100958.48
2017-11-18T07:14:50.325Z,100959.84
2017-11-18T07:15:55.865Z,100968.08
2017-11-18T07:17:02.351Z,100965.91
2017-11-18T07:18:08.447Z,100974.06
2017-11-18T07:19:14.170Z,100971.06
2017-11-18T07:20:20.239Z,100967.98
2017-11-18T07:21:26.304Z,100961.97
2017-11-18T07:22:32.464Z,100968.84
2017-11-18T07:23:38.651Z,100963.66
2017-11-18T07:24:44.780Z,100957.16
2017-11-18T07:25:50.933Z,100957.48
2017-11-18T07:26:57.018Z,100955.78
2017-11-18T07:28:03.141Z,100953.64
2017-11-18T07:29:09.249Z,100957.52
2017-11-18T07:30:15.313Z,100950.64
2017-11-18T07:31:21.467Z,100956.32
2017-11-18T07:32:27.565Z,100954.56
2017-11-18T07:33:33.652Z,100957.95
2017-11-18T07:34:39.815Z,100959.16
2017-11-18T07:35:45.927Z,100954.86
2017-11-18T07:36:52.018Z,100950.06
2017-11-18T07:37:58.137Z,100955.27
2017-11-18T07:39:03.557Z,100950.09
2017-11-18T07:40:09.653Z,100952.27
2017-11-18T07:41:15.789Z,100947.01
2017-11-18T07:42:21.933Z,100955.20
2017-11-18T07:43:28.038Z,100946.95
2017-11-18T07:44:34.161Z,100945.64
2017-11-18T07:45:40.272Z,100943.48
2017-11-18T07:46:46.385Z,100943.48
2017-11-18T07:47:52.842Z,100937.88
2017-11-18T07:49:03.804Z,100942.16
2017-11-18T07:50:09.595Z,100941.34
2017-11-18T07:51:15.717Z,100938.29
2017-11-18T07:52:22.280Z,100946.48
2017-11-18T07:53:28.457Z,100939.98
2017-11-18T07:54:35.241Z,100946.02
2017-11-18T07:55:42.325Z,100941.32
2017-11-18T07:56:50.461Z,100938.72
2017-11-18T07:57:58.215Z,100940.02
2017-11-18T07:59:04.357Z,100935.63
2017-11-18T08:00:10.464Z,100941.19
2017-11-18T08:01:16.846Z,100934.23
2017-11-18T08:02:23.001Z,100940.66
2017-11-18T08:03:30.438Z,100935.89
2017-11-18T08:04:36.612Z,100938.92
2017-11-18T08:05:42.799Z,100939.28
2017-11-18T08:06:48.546Z,100929.79
2017-11-18T08:07:54.864Z,100931.05
2017-11-18T08:09:00.985Z,100936.29
2017-11-18T08:10:07.176Z,100937.55
2017-11-18T08:11:13.437Z,100933.25
2017-11-18T08:12:19.628Z,100924.98
2017-11-18T08:13:25.786Z,100930.59
2017-11-18T08:14:31.947Z,100922.39
2017-11-18T08:15:38.074Z,100923.69
2017-11-18T08:16:44.165Z,100921.56
2017-11-18T08:17:50.298Z,100912.97
2017-11-18T08:18:56.425Z,100914.20
2017-11-18T08:20:02.575Z,100921.20
2017-11-18T08:21:09.024Z,100910.37
2017-11-18T08:22:15.221Z,100913.80
2017-11-18T08:23:22.509Z,100916.39
2017-11-18T08:24:28.912Z,100912.06
2017-11-18T08:25:35.087Z,100904.67
2017-11-18T08:26:41.216Z,100907.73
2017-11-18T08:27:47.395Z,100901.56
2017-11-18T08:28:53.513Z,100904.98
2017-11-18T08:29:59.573Z,100898.45
2017-11-18T08:31:05.720Z,100899.75
2017-11-18T08:32:11.807Z,100905.89
2017-11-18T08:33:18.091Z,100898.92
2017-11-18T08:34:24.204Z,100900.58
2017-11-18T08:35:30.606Z,100901.44
2017-11-18T08:36:37.236Z,100895.81
2017-11-18T08:37:43.119Z,100894.86
2017-11-18T08:38:49.285Z,100895.41
2017-11-18T08:39:55.453Z,100892.89
2017-11-18T08:41:01.544Z,100894.98
2017-11-18T08:42:07.656Z,100887.54
2017-11-18T08:43:14.152Z,100884.55
2017-11-18T08:44:20.455Z,100885.45
2017-11-18T08:45:26.603Z,100884.63
2017-11-18T08:46:32.740Z,100886.70
2017-11-18T08:47:38.862Z,100888.88
2017-11-18T08:48:44.940Z,100882.42
2017-11-18T08:49:51.062Z,100884.12
2017-11-18T08:50:57.168Z,100891.48
2017-11-18T08:52:03.264Z,100887.54
2017-11-18T08:53:09.405Z,100882.77
2017-11-18T08:54:15.486Z,100879.34
2017-11-18T08:55:21.198Z,100876.58
2017-11-18T08:56:26.893Z,100876.49
2017-11-18T08:57:33.030Z,100872.98
2017-11-18T08:58:39.197Z,100877.75
2017-11-18T08:59:44.635Z,100876.14
2017-11-18T09:00:50.046Z,100879.91
2017-11-18T09:01:55.987Z,100873.41
2017-11-18T09:03:01.511Z,100874.84
2017-11-18T09:04:07.659Z,100873.94
2017-11-18T09:05:13.588Z,100873.55
2017-11-18T09:06:19.392Z,100874.28
2017-11-18T09:07:25.481Z,100870.47
2017-11-18T09:08:31.247Z,100869.66
2017-11-18T09:09:37.400Z,100874.88
2017-11-18T09:10:43.548Z,100874.89
2017-11-18T09:11:49.690Z,100869.34
2017-11-18T09:12:55.873Z,100863.70
2017-11-18T09:14:01.957Z,100871.37
2017-11-18T09:15:08.059Z,100863.14
2017-11-18T09:16:14.162Z,100866.95
2017-11-18T09:17:21.209Z,100868.16
2017-11-18T09:18:27.373Z,100864.66
2017-11-18T09:19:33.514Z,100868.12
2017-11-18T09:20:39.409Z,100868.16
2017-11-18T09:21:45.520Z,100868.50
2017-11-18T09:22:51.639Z,100860.36
2017-11-18T09:23:57.948Z,100859.50
2017-11-18T09:25:04.078Z,100858.53
2017-11-18T09:26:10.193Z,100854.69
2017-11-18T09:27:16.307Z,100854.26
2017-11-18T09:28:29.489Z,100847.75
2017-11-18T09:29:35.872Z,100848.58
2017-11-18T09:30:41.965Z,100843.89
2017-11-18T09:31:48.046Z,100844.80
2017-11-18T09:32:54.167Z,100840.34
2017-11-18T09:34:03.168Z,100836.05
2017-11-18T09:35:08.974Z,100841.20
2017-11-18T09:36:15.388Z,100840.24
2017-11-18T09:37:21.570Z,100838.51
2017-11-18T09:38:27.756Z,100840.23
2017-11-18T09:39:33.868Z,100841.15
2017-11-18T09:40:40.040Z,100838.64
2017-11-18T09:41:46.200Z,100848.56
2017-11-18T09:42:52.361Z,100841.11
2017-11-18T09:43:58.452Z,100838.55
2017-11-18T09:45:04.213Z,100834.22
2017-11-18T09:46:10.332Z,100831.67
2017-11-18T09:47:16.496Z,100827.72
2017-11-18T09:48:22.902Z,100838.94
2017-11-18T09:49:30.090Z,100834.11
2017-11-18T09:50:36.302Z,100836.23
2017-11-18T09:51:42.422Z,100827.08
2017-11-18T09:52:48.532Z,100824.09
2017-11-18T09:53:54.728Z,100824.52
2017-11-18T09:55:00.840Z,100825.34
2017-11-18T09:56:06.947Z,100817.49
2017-11-18T09:57:13.146Z,100812.38
2017-11-18T09:58:24.281Z,100807.99
2017-11-18T09:59:30.584Z,100796.72
2017-11-18T10:00:36.706Z,100792.38
2017-11-18T10:01:49.585Z,100791.52
2017-11-18T10:02:55.715Z,100791.08
2017-11-18T10:04:01.325Z,100786.31
2017-11-18T10:05:06.886Z,100788.38
2017-11-18T10:06:12.389Z,100781.83
2017-11-18T10:07:17.874Z,100777.39
2017-11-18T10:08:24.073Z,100775.52
2017-11-18T10:09:29.906Z,100775.16
2017-11-18T10:10:36.077Z,100774.23
2017-11-18T10:11:42.248Z,100777.20
2017-11-18T10:12:48.424Z,100773.72
2017-11-18T10:13:54.615Z,100763.70
2017-11-18T10:15:04.956Z,100758.02
2017-11-18T10:16:11.400Z,100754.60
2017-11-18T10:17:17.706Z,100752.86
2017-11-18T10:18:23.971Z,100745.05
2017-11-18T10:19:30.434Z,100749.07
2017-11-18T10:20:36.631Z,100745.92
2017-11-18T10:21:42.776Z,100735.87
2017-11-18T10:22:48.948Z,100737.62
2017-11-18T10:23:55.174Z,100735.83
2017-11-18T10:25:01.408Z,100733.70
2017-11-18T10:26:07.564Z,100731.53
2017-11-18T10:27:13.961Z,100721.13
2017-11-18T10:28:20.128Z,100722.75
2017-11-18T10:29:32.171Z,100718.83
2017-11-18T10:30:38.338Z,100711.77
2017-11-18T10:31:44.143Z,100714.68
2017-11-18T10:32:50.340Z,100712.45
2017-11-18T10:33:56.527Z,100703.02
2017-11-18T10:35:02.678Z,100715.53
2017-11-18T10:36:08.885Z,100698.50
2017-11-18T10:37:15.046Z,100706.27
2017-11-18T10:38:21.562Z,100697.53
2017-11-18T10:39:27.687Z,100696.78
2017-11-18T10:40:33.833Z,100692.48
2017-11-18T10:41:40.017Z,100690.79
2017-11-18T10:42:46.200Z,100687.77
2017-11-18T10:43:52.322Z,100690.30
2017-11-18T10:44:58.139Z,100685.91
2017-11-18T10:46:03.947Z,100685.88
2017-11-18T10:47:10.906Z,100690.08
2017-11-18T10:48:17.322Z,100687.03
2017-11-18T10:49:23.461Z,100694.77
2017-11-18T10:50:29.636Z,100684.00
2017-11-18T10:51:35.779Z,100692.97
2017-11-18T10:52:41.888Z,100682.75
2017-11-18T10:53:48.076Z,100680.95
2017-11-18T10:54:54.217Z,100686.95
2017-11-18T10:56:00.027Z,100682.48
2017-11-18T10:57:06.136Z,100687.19
2017-11-18T10:58:12.425Z,100681.23
2017-11-18T10:59:18.601Z,100680.77
2017-11-18T11:00:24.069Z,100679.80
2017-11-18T11:01:30.024Z,100679.97
2017-11-18T11:02:36.231Z,100678.23
2017-11-18T11:03:42.407Z,100675.23
2017-11-18T11:04:48.576Z,100666.56
2017-11-18T11:05:54.071Z,100670.02
2017-11-18T11:07:00.127Z,100666.91
2017-11-18T11:08:05.993Z,100664.45
2017-11-18T11:09:12.153Z,100655.71
2017-11-18T11:10:18.284Z,100661.49
2017-11-18T11:11:24.459Z,100657.14
2017-11-18T11:12:30.301Z,100664.59
2017-11-18T11:13:36.304Z,100657.28
2017-11-18T11:14:42.504Z,100651.16
2017-11-18T11:15:48.659Z,100652.99
2017-11-18T11:16:55.310Z,100649.90
2017-11-18T11:18:01.171Z,100647.96
2017-11-18T11:19:07.334Z,100641.20
2017-11-18T11:20:13.186Z,100642.34
2017-11-18T11:21:19.388Z,100634.08
2017-11-18T11:23:36.766Z,100646.35
2017-11-18T11:24:43.131Z,100635.14
2017-11-18T11:25:49.289Z,100637.34
2017-11-18T11:26:55.447Z,100630.69
2017-11-18T11:28:01.601Z,100628.02
2017-11-18T11:29:07.741Z,100625.90
2017-11-18T11:30:13.244Z,100615.61
2017-11-18T11:31:19.191Z,100622.42
2017-11-18T11:32:25.019Z,100609.85
2017-11-18T11:33:30.836Z,100614.18
2017-11-18T11:34:37.033Z,100601.57
2017-11-18T11:35:43.225Z,100603.01
2017-11-18T11:36:49.073Z,100596.98
2017-11-18T11:37:55.272Z,100597.81
2017-11-18T11:39:01.452Z,100598.73
2017-11-18T11:40:07.673Z,100599.59
2017-11-18T11:41:13.894Z,100591.79
2017-11-18T11:42:20.132Z,100592.66
2017-11-18T11:43:26.368Z,100596.50
2017-11-18T11:44:38.589Z,100578.77
2017-11-18T11:45:44.188Z,100590.42
2017-11-18T11:46:49.878Z,100586.14
2017-11-18T11:47:55.766Z,100594.45
2017-11-18T11:49:01.955Z,100589.60
2017-11-18T11:50:07.776Z,100594.33
2017-11-18T11:51:13.773Z,100587.77
2017-11-18T11:52:19.934Z,100585.95
2017-11-18T11:53:26.088Z,100581.98
2017-11-18T11:54:32.071Z,100590.72
2017-11-18T11:55:38.046Z,100584.65
2017-11-18T11:56:44.173Z,100586.16
2017-11-18T11:57:50.373Z,100591.95
2017-11-18T11:58:56.525Z,100590.25
2017-11-18T12:00:02.325Z,100587.34
2017-11-18T12:01:08.471Z,100589.89
2017-11-18T12:02:14.340Z,100588.66
2017-11-18T12:03:19.854Z,100586.89
2017-11-18T12:04:26.072Z,100584.72
2017-11-18T12:05:31.837Z,100577.27
2017-11-18T12:06:37.616Z,100580.23
2017-11-18T12:07:43.795Z,100577.57
2017-11-18T12:08:49.967Z,100579.32
2017-11-18T12:09:55.804Z,100569.05
2017-11-18T12:11:01.969Z,100575.02
2017-11-18T12:12:08.156Z,100571.70
2017-11-18T12:13:14.401Z,100562.66
2017-11-18T12:14:20.207Z,100562.27
2017-11-18T12:15:26.366Z,100551.87
2017-11-18T12:16:32.222Z,100560.37
2017-11-18T12:17:38.395Z,100557.23
2017-11-18T12:18:44.578Z,100556.07
2017-11-18T12:19:50.703Z,100557.88
2017-11-18T12:20:56.155Z,100546.89
2017-11-18T12:22:02.209Z,100551.22
2017-11-18T12:23:07.831Z,100545.61
2017-11-18T12:24:13.999Z,100540.58
2017-11-18T12:25:19.816Z,100543.62
2017-11-18T12:26:25.820Z,100537.06
2017-11-18T12:27:31.673Z,100532.78
2017-11-18T12:28:37.863Z,100533.77
2017-11-18T12:29:43.995Z,100531.55
2017-11-18T12:30:49.947Z,100534.06
2017-11-18T12:31:56.115Z,100526.69
2017-11-18T12:33:02.300Z,100524.59
2017-11-18T12:34:08.431Z,100522.84
2017-11-18T12:35:14.345Z,100515.55
2017-11-18T12:36:20.500Z,100519.02
2017-11-18T12:37:26.361Z,100515.84